Time;durP1;ratioP1;P1;durP2;ratioP2;P2;SDS_P1;SDS_P2;PMS_P1;PMS_P2;Temp;Humidity;BMP_temperature;BMP_pressure;BME280_temperature;BME280_humidity;BME280_pressure;Samples;Min_cycle;Max_cycle;Signal;HPM_P1;HPM_P2
2021/04/04 00:00:29;;;;;;;5.70;1.60;;;7.40;62.30;;;;;;5074273;28;20069;-72
2021/04/04 00:02:55;;;;;;;7.53;1.98;;;7.40;62.30;;;;;;5072838;28;20048;-72
2021/04/04 00:05:21;;;;;;;6.00;1.80;;;7.40;62.30;;;;;;5072613;28;20455;-72
2021/04/04 00:07:47;;;;;;;10.55;2.45;;;7.50;62.30;;;;;;5072782;28;20112;-72
2021/04/04 00:10:14;;;;;;;6.93;1.98;;;7.50;62.30;;;;;;5074047;28;20028;-72
2021/04/04 00:12:41;;;;;;;7.40;1.70;;;7.50;62.40;;;;;;5072634;28;20016;-72
2021/04/04 00:15:09;;;;;;;8.40;1.83;;;7.40;62.40;;;;;;5073962;28;20486;-72
2021/04/04 00:17:35;;;;;;;7.97;1.83;;;7.40;62.40;;;;;;5072746;28;20480;-72
2021/04/04 00:20:01;;;;;;;7.30;2.10;;;7.50;62.50;;;;;;5073205;28;20086;-72
2021/04/04 00:22:27;;;;;;;7.10;2.25;;;7.50;62.50;;;;;;5073706;28;20025;-72
2021/04/04 00:24:52;;;;;;;7.63;1.95;;;7.50;62.60;;;;;;5072446;28;20024;-72
2021/04/04 00:27:18;;;;;;;5.63;2.00;;;7.50;62.60;;;;;;5072473;28;20021;-71
2021/04/04 00:29:44;;;;;;;11.02;1.98;;;7.50;62.60;;;;;;5072402;28;20017;-71
2021/04/04 00:32:09;;;;;;;10.52;2.25;;;7.50;62.60;;;;;;5073812;28;20369;-71
2021/04/04 00:34:35;;;;;;;8.02;1.98;;;7.60;62.60;;;;;;5073995;28;20107;-72
2021/04/04 00:37:01;;;;;;;5.60;1.40;;;7.60;62.60;;;;;;5072216;28;20024;-72
2021/04/04 00:39:28;;;;;;;7.32;2.00;;;7.60;62.60;;;;;;5071437;28;20028;-72
2021/04/04 00:41:53;;;;;;;9.52;1.85;;;7.60;62.70;;;;;;5073352;28;20091;-72
2021/04/04 00:44:19;;;;;;;8.70;2.25;;;7.60;62.60;;;;;;5072097;28;20021;-72
2021/04/04 00:46:45;;;;;;;7.43;1.63;;;7.60;62.60;;;;;;5072084;28;20024;-72
2021/04/04 00:49:11;;;;;;;9.18;2.28;;;7.60;62.70;;;;;;5073361;28;20020;-72
2021/04/04 00:51:37;;;;;;;11.20;2.38;;;7.60;62.70;;;;;;5073153;28;20104;-73
2021/04/04 00:54:04;;;;;;;4.68;1.60;;;7.70;62.70;;;;;;5072029;28;20046;-71
2021/04/04 00:56:32;;;;;;;9.73;1.88;;;7.70;62.70;;;;;;5073319;28;20028;-72
2021/04/04 00:58:58;;;;;;;7.45;1.75;;;7.70;62.80;;;;;;5071964;28;20017;-72
2021/04/04 01:01:26;;;;;;;7.63;2.30;;;7.70;62.70;;;;;;5073852;28;20445;-72
2021/04/04 01:03:52;;;;;;;11.02;1.90;;;7.70;62.80;;;;;;5072996;28;20047;-72
2021/04/04 01:06:18;;;;;;;8.88;1.88;;;7.70;62.80;;;;;;5073168;28;20417;-72
2021/04/04 01:08:43;;;;;;;6.45;1.80;;;7.70;62.80;;;;;;5071855;28;20412;-72
2021/04/04 01:11:12;;;;;;;13.50;2.17;;;7.70;62.80;;;;;;5072080;28;20369;-71
2021/04/04 01:13:50;;;;;;;9.15;2.00;;;7.80;62.90;;;;;;5073204;28;20020;-71
2021/04/04 01:16:38;;;;;;;10.70;1.92;;;7.80;62.80;;;;;;5071636;28;20024;-72
2021/04/04 01:19:52;;;;;;;10.05;2.00;;;7.70;62.80;;;;;;5073009;28;20032;-72
2021/04/04 01:22:45;;;;;;;7.50;2.03;;;7.70;63.00;;;;;;5067088;28;20459;-72
2021/04/04 01:25:50;;;;;;;10.57;2.33;;;7.60;63.10;;;;;;5071600;28;20107;-71
2021/04/04 01:28:24;;;;;;;7.38;2.13;;;7.60;63.20;;;;;;5073342;28;20025;-72
2021/04/04 01:30:52;;;;;;;10.13;2.75;;;7.60;63.20;;;;;;5071760;28;20020;-72
2021/04/04 01:33:20;;;;;;;9.45;1.90;;;7.60;63.20;;;;;;5072762;28;20496;-71
2021/04/04 01:35:53;;;;;;;8.80;2.13;;;7.60;63.30;;;;;;5072823;28;20526;-72
2021/04/04 01:38:23;;;;;;;7.80;2.00;;;7.70;63.30;;;;;;5071748;28;20024;-71
2021/04/04 01:40:54;;;;;;;8.25;1.80;;;7.70;63.30;;;;;;5071394;28;20050;-72
2021/04/04 01:43:20;;;;;;;6.25;1.80;;;7.70;63.30;;;;;;5071339;28;20029;-72
2021/04/04 01:45:46;;;;;;;10.48;2.03;;;7.80;63.30;;;;;;5072699;28;20388;-72
2021/04/04 01:48:13;;;;;;;7.03;2.15;;;7.70;63.20;;;;;;5071362;28;20039;-72
2021/04/04 01:50:41;;;;;;;9.13;2.00;;;7.70;63.20;;;;;;5073371;28;20090;-72
2021/04/04 01:53:08;;;;;;;6.07;2.13;;;7.70;63.90;;;;;;5076609;28;20027;-72
2021/04/04 01:55:37;;;;;;;6.55;1.50;;;7.60;63.30;;;;;;5075309;28;20021;-72
2021/04/04 01:58:05;;;;;;;9.05;2.10;;;7.70;63.40;;;;;;5075326;28;20021;-72
2021/04/04 02:00:31;;;;;;;12.07;2.00;;;7.70;63.40;;;;;;5075212;28;20494;-72
2021/04/04 02:02:57;;;;;;;9.73;1.77;;;7.60;63.40;;;;;;5076424;28;20099;-72
2021/04/04 02:05:25;;;;;;;7.63;2.10;;;7.60;63.50;;;;;;5074812;28;20044;-72
2021/04/04 02:07:51;;;;;;;6.80;1.88;;;7.60;63.40;;;;;;5076597;28;20029;-71
2021/04/04 02:10:21;;;;;;;5.95;1.63;;;7.60;63.40;;;;;;5076272;28;20485;-71
2021/04/04 02:12:48;;;;;;;7.75;1.73;;;7.50;63.40;;;;;;5076443;28;20043;-72
2021/04/04 02:15:15;;;;;;;3.85;1.60;;;7.50;63.50;;;;;;5074961;28;20373;-72
2021/04/04 02:17:44;;;;;;;4.38;1.40;;;7.60;63.60;;;;;;5074887;28;20063;-71
2021/04/04 02:20:14;;;;;;;9.65;1.98;;;7.50;63.50;;;;;;5074733;28;20404;-72
2021/04/04 02:22:41;;;;;;;5.57;1.52;;;7.50;63.60;;;;;;5074777;28;20032;-72
2021/04/04 02:25:12;;;;;;;7.32;1.35;;;7.50;63.70;;;;;;5075950;28;20492;-72
2021/04/04 02:27:41;;;;;;;9.05;2.10;;;7.50;63.70;;;;;;5075990;28;20059;-71
2021/04/04 02:30:08;;;;;;;8.10;1.85;;;7.60;63.70;;;;;;5076008;28;20033;-72
2021/04/04 02:32:40;;;;;;;6.93;2.10;;;7.60;63.70;;;;;;5075336;28;20036;-71
2021/04/04 02:35:07;;;;;;;6.97;1.98;;;7.60;63.70;;;;;;5076216;28;20028;-72
2021/04/04 02:37:37;;;;;;;5.57;1.55;;;7.60;63.70;;;;;;5074554;28;20479;-72
2021/04/04 02:40:09;;;;;;;8.73;1.50;;;7.60;63.90;;;;;;5074561;28;20432;-72
2021/04/04 02:42:36;;;;;;;7.07;1.60;;;7.60;63.90;;;;;;5075697;28;20468;-72
2021/04/04 02:45:04;;;;;;;8.35;2.63;;;7.60;63.80;;;;;;5074388;28;20419;-72
2021/04/04 02:47:36;;;;;;;8.82;1.90;;;7.60;63.90;;;;;;5075708;28;20100;-72
2021/04/04 02:50:03;;;;;;;10.80;1.80;;;7.60;63.90;;;;;;5074295;28;20091;-71
2021/04/04 02:52:34;;;;;;;9.23;1.85;;;7.60;63.90;;;;;;5075490;28;20039;-71
2021/04/04 02:55:00;;;;;;;8.18;1.80;;;7.60;64.00;;;;;;5074055;28;20033;-70
2021/04/04 02:57:30;;;;;;;8.57;1.77;;;7.60;63.90;;;;;;5075664;28;20032;-70
2021/04/04 03:00:05;;;;;;;3.53;1.42;;;7.70;64.00;;;;;;5075449;28;20072;-71
2021/04/04 03:02:32;;;;;;;7.13;1.80;;;7.70;64.00;;;;;;5072974;28;20021;-70
2021/04/04 03:05:00;;;;;;;6.32;1.60;;;7.70;64.00;;;;;;5075249;28;20127;-70
2021/04/04 03:07:28;;;;;;;5.10;1.40;;;7.70;64.00;;;;;;5074271;28;20074;-71
2021/04/04 03:09:55;;;;;;;10.00;1.73;;;7.70;64.00;;;;;;5075331;28;20488;-71
2021/04/04 03:12:24;;;;;;;7.40;1.77;;;7.70;64.10;;;;;;5073934;28;20483;-71
2021/04/04 03:14:51;;;;;;;6.00;1.70;;;7.70;64.10;;;;;;5075140;28;20078;-71
2021/04/04 03:17:18;;;;;;;6.15;1.60;;;7.70;64.10;;;;;;5075142;28;20079;-70
2021/04/04 03:19:45;;;;;;;6.55;1.48;;;7.70;64.20;;;;;;5075139;28;20031;-71
2021/04/04 03:22:12;;;;;;;5.13;1.70;;;7.70;64.20;;;;;;5073652;28;20029;-71
2021/04/04 03:24:40;;;;;;;6.68;1.40;;;7.60;64.20;;;;;;5075479;28;20049;-71
2021/04/04 03:27:06;;;;;;;5.13;1.52;;;7.60;64.30;;;;;;5073638;28;20021;-71
2021/04/04 03:29:34;;;;;;;7.75;2.22;;;7.60;64.30;;;;;;5073592;28;20052;-71
2021/04/04 03:32:01;;;;;;;4.60;1.30;;;7.60;64.30;;;;;;5074843;28;20414;-71
2021/04/04 03:34:27;;;;;;;6.70;1.50;;;7.70;64.30;;;;;;5074805;28;20107;-70
2021/04/04 03:36:54;;;;;;;6.00;1.30;;;7.70;64.20;;;;;;5073437;28;20123;-70
2021/04/04 03:39:22;;;;;;;4.80;1.50;;;7.70;64.20;;;;;;5074698;28;20392;-70
2021/04/04 03:41:50;;;;;;;5.47;1.38;;;7.70;64.20;;;;;;5073359;28;20051;-70
2021/04/04 03:44:20;;;;;;;3.33;1.20;;;7.70;64.30;;;;;;5073412;28;20052;-70
2021/04/04 03:46:47;;;;;;;6.38;1.23;;;7.70;64.30;;;;;;5073340;28;20089;-70
2021/04/04 03:49:14;;;;;;;13.60;1.80;;;7.70;64.30;;;;;;5074532;28;20485;-70
2021/04/04 03:51:40;;;;;;;5.28;1.23;;;7.70;64.30;;;;;;5074322;28;20024;-71
2021/04/04 03:54:11;;;;;;;6.35;1.50;;;7.80;64.30;;;;;;5074386;28;20494;-71
2021/04/04 03:56:41;;;;;;;7.10;1.48;;;7.80;64.30;;;;;;5074666;28;20123;-71
2021/04/04 03:59:10;;;;;;;4.38;1.20;;;7.90;64.20;;;;;;5074232;28;20040;-71
2021/04/04 04:01:39;;;;;;;6.07;1.70;;;7.80;64.20;;;;;;5072930;28;20082;-71
2021/04/04 04:04:08;;;;;;;6.75;1.55;;;7.80;64.20;;;;;;5074163;28;20045;-71
2021/04/04 04:06:37;;;;;;;6.20;1.45;;;7.80;64.30;;;;;;5072967;28;20484;-70
2021/04/04 04:09:05;;;;;;;3.92;1.27;;;7.80;64.30;;;;;;5074478;28;20031;-70
2021/04/04 04:11:31;;;;;;;5.60;1.20;;;7.80;64.30;;;;;;5073997;28;20413;-71
2021/04/04 04:14:00;;;;;;;7.18;1.50;;;7.80;64.30;;;;;;5073778;28;20385;-70
2021/04/04 04:16:25;;;;;;;3.70;1.27;;;7.80;64.40;;;;;;5072635;28;20431;-70
2021/04/04 04:18:52;;;;;;;7.50;1.30;;;7.70;64.50;;;;;;5072584;28;20024;-70
2021/04/04 04:21:18;;;;;;;3.00;1.10;;;7.60;64.60;;;;;;5073794;28;20044;-71
2021/04/04 04:23:45;;;;;;;6.00;1.52;;;7.60;64.80;;;;;;5073747;28;20032;-71
2021/04/04 04:26:13;;;;;;;5.63;1.25;;;7.60;64.90;;;;;;5073759;28;20081;-71
2021/04/04 04:28:40;;;;;;;5.68;1.55;;;7.50;65.00;;;;;;5074040;28;20033;-70
2021/04/04 04:31:10;;;;;;;6.25;1.50;;;7.50;65.10;;;;;;5073737;28;20468;-70
2021/04/04 04:33:36;;;;;;;5.88;1.30;;;7.50;65.10;;;;;;5072263;28;20116;-71
2021/04/04 04:36:03;;;;;;;7.35;1.73;;;7.50;65.10;;;;;;5073664;28;20036;-70
2021/04/04 04:38:29;;;;;;;5.35;1.20;;;7.50;65.10;;;;;;5073514;28;20028;-71
2021/04/04 04:40:56;;;;;;;7.10;1.40;;;7.50;65.20;;;;;;5072247;28;20035;-71
2021/04/04 04:43:22;;;;;;;5.97;1.30;;;7.50;65.30;;;;;;5073319;28;20040;-70
2021/04/04 04:45:51;;;;;;;5.80;1.33;;;7.50;65.20;;;;;;5072201;28;20439;-70
2021/04/04 04:48:16;;;;;;;4.90;1.20;;;7.50;65.20;;;;;;5073322;28;20032;-71
2021/04/04 04:50:43;;;;;;;6.13;1.40;;;7.50;65.30;;;;;;5073322;28;20033;-70
2021/04/04 04:53:09;;;;;;;6.05;1.38;;;7.60;65.30;;;;;;5073315;28;20036;-70
2021/04/04 04:55:36;;;;;;;7.07;1.80;;;7.60;65.20;;;;;;5072179;28;20029;-71
2021/04/04 04:58:03;;;;;;;7.68;1.38;;;7.60;65.30;;;;;;5072002;28;20522;-71
2021/04/04 05:00:30;;;;;;;3.55;1.40;;;7.50;65.30;;;;;;5073232;28;20389;-71
2021/04/04 05:02:56;;;;;;;7.20;1.33;;;7.60;65.30;;;;;;5073137;28;20476;-70
2021/04/04 05:05:22;;;;;;;5.15;1.27;;;7.60;65.30;;;;;;5071660;28;20131;-71
2021/04/04 05:07:48;;;;;;;6.07;1.30;;;7.60;65.30;;;;;;5071825;28;20028;-71
2021/04/04 05:10:15;;;;;;;5.30;1.15;;;7.60;65.30;;;;;;5073538;28;20033;-71
2021/04/04 05:12:51;;;;;;;3.42;1.13;;;7.60;65.30;;;;;;5073071;28;20122;-71
2021/04/04 05:15:19;;;;;;;9.82;1.77;;;7.70;65.40;;;;;;5071868;28;20024;-71
2021/04/04 05:17:45;;;;;;;4.68;1.35;;;7.70;65.30;;;;;;5073026;28;20035;-71
2021/04/04 05:20:12;;;;;;;4.57;1.30;;;7.70;65.20;;;;;;5071526;28;20048;-70
2021/04/04 05:22:38;;;;;;;7.13;1.35;;;7.80;65.20;;;;;;5071555;28;20032;-71
2021/04/04 05:25:06;;;;;;;5.75;1.42;;;7.80;65.20;;;;;;5072493;28;20063;-71
2021/04/04 05:27:32;;;;;;;2.65;1.20;;;7.80;65.20;;;;;;5073250;28;20024;-71
2021/04/04 05:30:04;;;;;;;3.22;1.38;;;7.80;65.20;;;;;;5073344;28;20464;-71
2021/04/04 05:32:30;;;;;;;3.75;1.67;;;7.80;65.20;;;;;;5072539;28;20384;-71
2021/04/04 05:34:56;;;;;;;5.63;1.20;;;7.80;65.10;;;;;;5071787;28;20033;-71
2021/04/04 05:37:21;;;;;;;4.57;1.52;;;7.90;65.10;;;;;;5071227;28;20519;-71
2021/04/04 05:39:47;;;;;;;4.55;1.33;;;7.90;65.10;;;;;;5072753;28;20535;-71
2021/04/04 05:42:14;;;;;;;8.05;1.48;;;7.90;65.00;;;;;;5071079;28;20062;-71
2021/04/04 05:44:57;;;;;;;4.97;1.55;;;8.00;65.00;;;;;;5072467;28;20028;-71
2021/04/04 05:47:44;;;;;;;5.63;1.30;;;8.00;64.90;;;;;;5071237;28;20062;-71
2021/04/04 05:50:26;;;;;;;4.65;1.40;;;8.00;64.90;;;;;;5072499;28;20020;-71
2021/04/04 05:53:04;;;;;;;4.78;1.30;;;8.00;64.80;;;;;;5072347;28;20039;-71
2021/04/04 05:55:44;;;;;;;4.45;1.17;;;7.90;64.80;;;;;;5071080;28;20027;-71
2021/04/04 05:58:22;;;;;;;3.78;1.30;;;7.90;64.90;;;;;;5071212;28;20032;-71
2021/04/04 06:00:55;;;;;;;5.55;1.40;;;7.90;65.00;;;;;;5072392;28;20496;-70
2021/04/04 06:03:26;;;;;;;4.35;1.42;;;7.90;65.00;;;;;;5072247;28;20162;-71
2021/04/04 06:06:29;;;;;;;5.25;1.52;;;7.90;64.90;;;;;;5072053;28;20076;-71
2021/04/04 06:09:22;;;;;;;4.82;1.20;;;7.90;64.90;;;;;;5070892;28;20423;-72
2021/04/04 06:12:23;;;;;;;6.55;1.08;;;8.00;64.90;;;;;;5072116;28;20031;-71
2021/04/04 06:15:10;;;;;;;12.57;3.50;;;8.00;64.80;;;;;;5070245;28;20040;-70
2021/04/04 06:17:46;;;;;;;10.68;2.80;;;8.00;64.80;;;;;;5069840;28;20056;-70
2021/04/04 06:20:41;;;;;;;7.85;2.00;;;8.00;64.80;;;;;;5070688;28;20049;-70
2021/04/04 06:23:25;;;;;;;6.25;1.60;;;8.00;64.80;;;;;;5072142;28;20468;-70
2021/04/04 06:25:59;;;;;;;7.07;1.73;;;8.00;64.80;;;;;;5070842;28;20025;-71
2021/04/04 06:28:51;;;;;;;7.70;2.10;;;8.10;64.80;;;;;;5070837;28;20021;-70
2021/04/04 06:31:39;;;;;;;4.72;1.33;;;8.10;64.70;;;;;;5070801;28;20017;-70
2021/04/04 06:34:16;;;;;;;5.22;1.42;;;8.10;64.70;;;;;;5072157;28;20495;-71
2021/04/04 06:37:03;;;;;;;2.78;1.05;;;8.00;64.70;;;;;;5070805;28;20017;-71
2021/04/04 06:40:04;;;;;;;6.95;1.42;;;8.10;64.70;;;;;;5075718;28;20032;-72
2021/04/04 06:42:56;;;;;;;4.28;1.42;;;8.10;64.70;;;;;;5074163;28;20024;-71
2021/04/04 06:45:24;;;;;;;5.95;1.60;;;8.10;64.70;;;;;;5075671;28;20028;-71
2021/04/04 06:48:04;;;;;;;5.55;1.38;;;8.10;64.70;;;;;;5075600;28;20107;-72
2021/04/04 06:50:36;;;;;;;4.32;1.35;;;8.10;64.70;;;;;;5074229;28;20095;-71
2021/04/04 06:53:43;;;;;;;5.57;1.43;;;8.20;64.70;;;;;;5074136;28;20181;-71
2021/04/04 06:56:23;;;;;;;5.88;1.23;;;8.20;64.60;;;;;;5073101;28;20802;-72
2021/04/04 06:59:13;;;;;;;10.05;2.95;;;8.30;65.20;;;;;;5056394;28;20032;-72
2021/04/04 07:02:04;;;;;;;8.00;2.72;;;8.20;64.60;;;;;;5056273;28;20122;-71
2021/04/04 07:04:32;;;;;;;7.45;2.28;;;8.30;64.70;;;;;;5072794;28;20044;-72
2021/04/04 07:07:19;;;;;;;8.15;2.10;;;8.30;64.70;;;;;;5073075;28;20032;-71
2021/04/04 07:10:06;;;;;;;5.13;1.38;;;8.30;64.60;;;;;;5055935;28;20056;-72
2021/04/04 07:12:57;;;;;;;5.80;1.70;;;8.30;64.80;;;;;;5056204;28;20482;-72
2021/04/04 07:15:44;;;;;;;9.20;1.90;;;8.30;64.70;;;;;;5056009;28;20024;-71
2021/04/04 07:18:21;;;;;;;5.85;1.52;;;8.30;64.90;;;;;;5055955;28;20037;-72
2021/04/04 07:21:08;;;;;;;5.13;1.52;;;8.30;64.90;;;;;;5072704;28;20040;-71
2021/04/04 07:23:50;;;;;;;4.85;1.52;;;8.30;64.90;;;;;;5072615;28;20041;-72
2021/04/04 07:26:21;;;;;;;6.05;1.42;;;8.40;65.00;;;;;;5055889;28;20025;-72
2021/04/04 07:29:00;;;;;;;5.05;1.48;;;8.30;65.00;;;;;;5055947;28;20028;-71
2021/04/04 07:31:37;;;;;;;5.38;1.95;;;8.40;65.10;;;;;;5074740;28;20020;-72
2021/04/04 07:34:26;;;;;;;8.00;1.60;;;8.40;65.20;;;;;;5073460;28;20029;-72
2021/04/04 07:37:29;;;;;;;4.85;1.50;;;8.30;65.20;;;;;;5074630;28;20025;-71
2021/04/04 07:40:07;;;;;;;10.43;1.73;;;8.30;65.30;;;;;;5074851;28;20098;-71
2021/04/04 07:46:13;;;;;;;6.03;2.20;;;8.40;65.50;;;;;;5074448;28;20533;-71
2021/04/04 07:49:09;;;;;;;5.68;1.70;;;8.40;65.60;;;;;;5072679;28;20020;-71
2021/04/04 07:51:40;;;;;;;5.82;1.70;;;8.40;65.70;;;;;;5074669;28;20091;-71
2021/04/04 07:54:27;;;;;;;5.15;1.70;;;8.40;65.80;;;;;;5072872;28;20537;-71
2021/04/04 07:56:59;;;;;;;7.90;1.77;;;8.40;66.10;;;;;;5072790;28;20071;-71
2021/04/04 07:59:47;;;;;;;6.18;1.80;;;8.30;66.30;;;;;;5074381;28;20044;-71
2021/04/04 08:02:45;;;;;;;7.20;1.40;;;8.20;66.80;;;;;;5072806;28;20039;-72
2021/04/04 08:05:13;;;;;;;5.65;1.45;;;8.30;67.00;;;;;;5072615;28;20056;-72
2021/04/04 08:07:56;;;;;;;9.75;2.10;;;8.20;67.10;;;;;;5072807;28;20115;-71
2021/04/04 08:10:43;;;;;;;5.32;1.40;;;8.20;67.40;;;;;;5074103;28;20448;-72
2021/04/04 08:13:35;;;;;;;3.55;1.33;;;8.20;67.60;;;;;;5072554;28;20476;-73
2021/04/04 08:16:17;;;;;;;6.45;1.75;;;8.30;67.60;;;;;;5074032;28;20029;-73
2021/04/04 08:18:42;;;;;;;5.40;1.45;;;8.30;67.90;;;;;;5072529;28;20031;-73
2021/04/04 08:21:13;;;;;;;6.43;2.22;;;8.30;67.90;;;;;;5073797;28;20029;-73
2021/04/04 08:23:47;;;;;;;4.28;1.60;;;8.30;67.90;;;;;;5072322;28;20024;-74
2021/04/04 08:26:35;;;;;;;4.10;1.70;;;8.30;67.90;;;;;;5073840;28;20396;-73
2021/04/04 08:29:25;;;;;;;6.00;1.65;;;8.40;67.90;;;;;;5073613;28;20602;-73
2021/04/04 08:32:05;;;;;;;3.97;1.60;;;8.40;67.80;;;;;;5072332;28;20025;-74
2021/04/04 08:34:46;;;;;;;6.95;2.80;;;8.50;67.80;;;;;;5072230;28;20119;-74
2021/04/04 08:37:27;;;;;;;5.60;2.00;;;8.50;67.50;;;;;;5072312;28;20033;-74
2021/04/04 08:39:55;;;;;;;4.82;1.60;;;8.50;67.90;;;;;;5072065;28;20059;-73
2021/04/04 08:42:21;;;;;;;3.58;1.60;;;8.50;67.00;;;;;;5073348;28;20078;-75
2021/04/04 08:45:08;;;;;;;3.58;1.50;;;8.50;66.70;;;;;;5072129;28;20024;-74
2021/04/04 08:47:41;;;;;;;3.78;1.83;;;8.40;66.60;;;;;;5073499;28;20039;-75
2021/04/04 08:50:15;;;;;;;3.60;1.38;;;8.50;66.60;;;;;;5073551;28;20044;-74
2021/04/04 08:52:48;;;;;;;4.25;1.67;;;8.50;66.40;;;;;;5071955;28;20032;-73
2021/04/04 08:55:26;;;;;;;4.63;1.95;;;8.50;66.20;;;;;;5072183;28;20426;-72
2021/04/04 08:57:52;;;;;;;6.80;1.92;;;8.50;66.20;;;;;;5073103;28;20476;-70
2021/04/04 09:00:21;;;;;;;3.20;1.88;;;8.50;66.20;;;;;;5071352;28;20043;-71
2021/04/04 09:03:06;;;;;;;3.22;1.60;;;8.50;66.20;;;;;;5073083;28;20024;-76
2021/04/04 09:05:35;;;;;;;7.95;2.53;;;8.50;66.20;;;;;;5071432;28;20040;-71
2021/04/04 09:08:04;;;;;;;3.03;2.10;;;8.40;66.40;;;;;;5072936;28;20033;-71
2021/04/04 09:10:35;;;;;;;4.57;2.30;;;8.40;66.50;;;;;;5073071;28;20099;-72
2021/04/04 09:13:11;;;;;;;6.32;2.42;;;8.40;66.60;;;;;;5072730;28;20107;-72
2021/04/04 09:16:10;;;;;;;4.20;2.10;;;8.40;66.80;;;;;;5072882;28;20063;-72
2021/04/04 09:18:53;;;;;;;3.83;1.80;;;8.40;66.90;;;;;;5071241;28;20051;-72
2021/04/04 09:21:20;;;;;;;;;;;8.50;66.90;;;;;;5071903;28;20072;-71
2021/04/04 09:23:48;;;;;;;3.83;2.22;;;8.60;66.80;;;;;;5072483;28;19912;-72
2021/04/04 09:26:34;;;;;;;5.32;2.10;;;8.60;66.40;;;;;;5071268;28;20345;-73
2021/04/04 09:29:00;;;;;;;4.38;2.55;;;8.60;66.10;;;;;;5071606;28;20103;-71
2021/04/04 09:31:30;;;;;;;3.95;2.30;;;8.70;66.00;;;;;;5072631;28;20056;-71
2021/04/04 09:34:04;;;;;;;3.25;2.13;;;8.60;65.90;;;;;;5072394;28;20033;-72
2021/04/04 09:36:44;;;;;;;5.60;3.17;;;8.70;65.90;;;;;;5072633;28;20051;-71
2021/04/04 09:39:15;;;;;;;4.60;2.80;;;8.80;65.90;;;;;;5072517;28;20029;-71
2021/04/04 09:41:41;;;;;;;5.32;2.50;;;8.70;65.80;;;;;;5071255;28;20033;-71
2021/04/04 09:44:09;;;;;;;3.22;2.20;;;8.70;65.90;;;;;;5072386;28;20031;-72
2021/04/04 09:46:56;;;;;;;5.57;2.10;;;8.70;66.10;;;;;;5071366;28;20028;-72
2021/04/04 09:49:32;;;;;;;3.22;2.33;;;8.70;66.20;;;;;;5072309;28;20021;-72
2021/04/04 09:51:57;;;;;;;4.40;2.50;;;8.70;66.20;;;;;;5070922;28;20056;-73
2021/04/04 09:54:23;;;;;;;3.70;2.25;;;8.60;66.20;;;;;;5070883;28;20117;-72
2021/04/04 09:56:57;;;;;;;3.78;1.80;;;8.60;66.30;;;;;;5072270;28;20033;-72
2021/04/04 09:59:32;;;;;;;2.92;2.00;;;8.70;66.40;;;;;;5070783;28;20031;-72
2021/04/04 10:01:58;;;;;;;2.67;1.67;;;8.70;66.30;;;;;;5072565;28;20020;-72
2021/04/04 10:04:24;;;;;;;1.90;1.70;;;8.70;66.20;;;;;;5072074;28;20114;-72
2021/04/04 10:06:59;;;;;;;5.07;2.05;;;8.70;65.90;;;;;;5070791;28;20039;-72
2021/04/04 10:09:37;;;;;;;2.63;1.85;;;8.80;65.70;;;;;;5070927;28;20024;-72
2021/04/04 10:12:04;;;;;;;2.33;1.45;;;8.80;65.60;;;;;;5073729;28;20024;-71
2021/04/04 10:14:29;;;;;;;2.33;1.80;;;8.80;65.40;;;;;;5074689;28;20123;-72
2021/04/04 10:17:09;;;;;;;1.75;1.50;;;8.90;65.30;;;;;;5075943;28;20096;-73
2021/04/04 10:19:55;;;;;;;4.13;2.13;;;8.90;65.30;;;;;;5074632;28;20110;-72
2021/04/04 10:22:21;;;;;;;2.92;1.90;;;8.90;65.00;;;;;;5074246;28;20086;-72
2021/04/04 10:24:47;;;;;;;3.00;1.85;;;9.00;65.10;;;;;;5076339;28;20021;-72
2021/04/04 10:27:15;;;;;;;3.72;1.80;;;9.10;64.90;;;;;;5074475;28;20021;-72
2021/04/04 10:29:42;;;;;;;3.78;2.33;;;9.10;64.80;;;;;;5074778;28;20094;-73
2021/04/04 10:32:07;;;;;;;3.95;2.33;;;9.10;64.70;;;;;;5076218;28;20050;-73
2021/04/04 10:34:46;;;;;;;5.50;2.03;;;9.20;64.10;;;;;;5076043;28;20108;-73
2021/04/04 10:37:20;;;;;;;3.45;1.75;;;9.20;64.00;;;;;;5074045;28;20025;-73
2021/04/04 10:39:58;;;;;;;2.45;2.00;;;9.10;63.90;;;;;;5075991;28;20068;-73
2021/04/04 10:42:25;;;;;;;4.30;1.70;;;9.10;64.00;;;;;;5073914;28;20346;-72
2021/04/04 10:45:05;;;;;;;3.45;1.80;;;9.10;63.70;;;;;;5075363;28;20045;-72
2021/04/04 10:47:31;;;;;;;4.28;1.42;;;9.20;63.70;;;;;;5075303;28;20024;-72
2021/04/04 10:49:58;;;;;;;2.50;1.40;;;9.30;63.30;;;;;;5074036;28;20024;-73
2021/04/04 10:52:24;;;;;;;2.80;1.60;;;9.40;63.20;;;;;;5075464;28;20051;-73
2021/04/04 10:54:50;;;;;;;3.85;1.60;;;9.50;63.00;;;;;;5073911;28;20025;-73
2021/04/04 10:57:17;;;;;;;3.25;1.50;;;9.50;62.10;;;;;;5073914;28;20119;-73
2021/04/04 10:59:47;;;;;;;3.67;1.58;;;9.50;61.90;;;;;;5075567;28;20052;-73
2021/04/04 11:02:13;;;;;;;3.20;1.40;;;9.60;61.90;;;;;;5075071;28;20032;-73
2021/04/04 11:04:40;;;;;;;3.42;1.50;;;9.60;61.80;;;;;;5073685;28;20055;-73
2021/04/04 11:07:07;;;;;;;3.50;1.58;;;9.70;61.90;;;;;;5073731;28;20430;-73
2021/04/04 11:09:33;;;;;;;3.58;1.80;;;9.70;61.60;;;;;;5073536;28;20414;-73
2021/04/04 11:12:01;;;;;;;5.35;1.60;;;9.70;61.30;;;;;;5073507;28;20035;-74
2021/04/04 11:14:30;;;;;;;4.45;1.30;;;9.80;61.10;;;;;;5074827;28;20029;-74
2021/04/04 11:17:00;;;;;;;4.30;1.60;;;9.80;60.90;;;;;;5073425;28;20024;-73
2021/04/04 11:19:27;;;;;;;6.40;1.60;;;9.80;61.00;;;;;;5073653;28;20025;-73
2021/04/04 11:21:57;;;;;;;3.92;1.70;;;9.90;60.80;;;;;;5073749;28;20115;-73
2021/04/04 11:24:23;;;;;;;3.13;1.73;;;9.90;60.30;;;;;;5074347;28;20025;-73
2021/04/04 11:26:57;;;;;;;6.50;1.90;;;10.00;60.40;;;;;;5074815;28;20024;-74
2021/04/04 11:29:25;;;;;;;2.42;1.58;;;10.00;60.30;;;;;;5074719;28;20020;-73
2021/04/04 11:31:55;;;;;;;4.68;2.00;;;10.10;60.20;;;;;;5074896;28;20028;-73
2021/04/04 11:34:21;;;;;;;4.65;2.00;;;10.30;60.10;;;;;;5074617;28;20392;-73
2021/04/04 11:36:47;;;;;;;5.10;1.92;;;10.30;59.50;;;;;;5073187;28;20056;-73
2021/04/04 11:39:13;;;;;;;5.13;2.50;;;10.40;59.40;;;;;;5073180;28;20024;-75
2021/04/04 11:41:48;;;;;;;5.35;2.22;;;10.40;59.00;;;;;;5074334;28;20029;-73
2021/04/04 11:44:33;;;;;;;4.00;2.08;;;10.40;58.90;;;;;;5074729;28;20472;-73
2021/04/04 11:47:15;;;;;;;3.22;2.28;;;10.40;58.90;;;;;;5072875;28;20499;-73
2021/04/04 11:49:53;;;;;;;6.35;2.67;;;10.50;58.50;;;;;;5072896;28;20032;-73
2021/04/04 11:52:20;;;;;;;7.65;2.92;;;10.40;58.00;;;;;;5072811;28;20040;-73
2021/04/04 11:54:47;;;;;;;7.57;3.00;;;10.40;58.00;;;;;;5073964;28;20468;-73
2021/04/04 11:57:17;;;;;;;6.72;3.25;;;10.40;58.10;;;;;;5072682;28;20078;-73
2021/04/04 11:59:43;;;;;;;5.82;2.70;;;10.50;57.90;;;;;;5072774;28;20054;-72
2021/04/04 12:02:10;;;;;;;4.53;2.40;;;10.50;57.80;;;;;;5074014;28;20032;-73
2021/04/04 12:04:44;;;;;;;7.82;2.38;;;10.60;57.90;;;;;;5072467;28;20553;-73
2021/04/04 12:07:18;;;;;;;6.13;2.10;;;10.70;58.00;;;;;;5072473;28;20175;-73
2021/04/04 12:09:45;;;;;;;6.85;2.67;;;10.80;57.90;;;;;;5072412;28;20025;-72
2021/04/04 12:12:12;;;;;;;6.40;2.60;;;10.90;57.60;;;;;;5073709;28;20048;-72
2021/04/04 12:14:46;;;;;;;6.00;2.50;;;11.00;57.50;;;;;;5072422;28;20437;-72
2021/04/04 12:17:13;;;;;;;6.45;2.53;;;11.00;57.50;;;;;;5072439;28;20047;-72
2021/04/04 12:19:42;;;;;;;6.28;2.55;;;11.10;57.30;;;;;;5073443;28;20503;-74
2021/04/04 12:22:08;;;;;;;4.60;2.42;;;11.20;57.30;;;;;;5073492;28;20017;-72
2021/04/04 12:24:54;;;;;;;6.20;3.10;;;11.30;57.00;;;;;;5074026;28;20479;-72
2021/04/04 12:27:23;;;;;;;6.90;2.95;;;11.40;56.60;;;;;;5073367;28;20552;-73
2021/04/04 12:29:52;;;;;;;6.32;3.47;;;11.50;56.40;;;;;;5072071;28;20023;-73
2021/04/04 12:32:22;;;;;;;7.93;3.45;;;11.40;56.10;;;;;;5072641;28;20143;-72
2021/04/04 12:35:05;;;;;;;7.50;3.22;;;11.40;56.20;;;;;;5071946;28;20495;-73
2021/04/04 12:37:35;;;;;;;6.13;3.20;;;11.40;56.00;;;;;;5073291;28;20021;-72
2021/04/04 12:40:03;;;;;;;5.35;3.05;;;11.40;56.30;;;;;;5071778;28;20032;-73
2021/04/04 12:42:32;;;;;;;7.28;3.50;;;11.40;56.20;;;;;;5072913;28;20040;-72
2021/04/04 12:44:58;;;;;;;6.38;3.20;;;11.50;56.20;;;;;;5071643;28;20024;-73
2021/04/04 12:47:26;;;;;;;6.55;3.60;;;11.40;55.80;;;;;;5073549;28;20021;-72
2021/04/04 12:49:59;;;;;;;9.20;3.53;;;11.40;56.00;;;;;;5071731;28;20499;-72
2021/04/04 12:52:37;;;;;;;17.60;5.28;;;11.50;56.10;;;;;;5071856;28;20043;-72
2021/04/04 12:55:13;;;;;;;16.50;5.63;;;11.50;56.10;;;;;;5072843;28;20021;-72
2021/04/04 12:57:39;;;;;;;9.32;4.07;;;11.50;55.80;;;;;;5071601;28;20047;-72
2021/04/04 13:00:12;;;;;;;11.35;5.22;;;11.50;55.90;;;;;;5071701;28;20030;-72
2021/04/04 13:02:38;;;;;;;9.20;4.13;;;11.60;55.70;;;;;;5071426;28;20028;-71
2021/04/04 13:05:05;;;;;;;6.85;3.60;;;11.60;55.90;;;;;;5071696;28;20068;-72
2021/04/04 13:07:31;;;;;;;8.02;4.10;;;11.80;55.50;;;;;;5072808;28;20047;-71
2021/04/04 13:09:57;;;;;;;8.10;3.63;;;11.80;55.40;;;;;;5072866;28;20025;-71
2021/04/04 13:12:22;;;;;;;5.78;3.15;;;11.80;55.20;;;;;;5072911;28;20035;-72
2021/04/04 13:14:48;;;;;;;7.13;2.88;;;11.80;55.30;;;;;;5072392;28;20047;-73
2021/04/04 13:17:14;;;;;;;9.73;3.80;;;11.80;55.70;;;;;;5071303;28;20116;-72
2021/04/04 13:19:40;;;;;;;8.38;3.50;;;11.90;55.60;;;;;;5071328;28;20031;-71
2021/04/04 13:22:08;;;;;;;7.70;3.60;;;11.90;55.20;;;;;;5071203;28;20534;-72
2021/04/04 13:24:52;;;;;;;7.60;3.03;;;12.00;55.30;;;;;;5071298;28;20043;-72